sensor_id;sensor_type;location;lat;lon;timestamp;pressure;altitude;pressure_sealevel;temperature;humidity
8637;BME280;4356;49.068;8.658;2023-11-21T00:00:29;99273.41;;;18.28;46.10
8637;BME280;4356;49.068;8.658;2023-11-21T00:02:55;99261.34;;;18.24;45.84
8637;BME280;4356;49.068;8.658;2023-11-21T00:05:20;99257.22;;;18.22;46.11
8637;BME280;4356;49.068;8.658;2023-11-21T00:07:48;99250.09;;;18.21;46.28
8637;BME280;4356;49.068;8.658;2023-11-21T00:10:13;99246.81;;;18.19;46.08
8637;BME280;4356;49.068;8.658;2023-11-21T00:12:39;99257.81;;;18.24;46.27
8637;BME280;4356;49.068;8.658;2023-11-21T00:15:07;99266.09;;;18.29;46.36
8637;BME280;4356;49.068;8.658;2023-11-21T00:17:37;99262.78;;;18.27;46.26
8637;BME280;4356;49.068;8.658;2023-11-21T00:20:03;99258.63;;;18.24;46.00
8637;BME280;4356;49.068;8.658;2023-11-21T00:22:32;99264.44;;;18.28;46.40
8637;BME280;4356;49.068;8.658;2023-11-21T00:24:57;99263.38;;;18.29;45.97
8637;BME280;4356;49.068;8.658;2023-11-21T00:27:23;99256.75;;;18.25;45.92
8637;BME280;4356;49.068;8.658;2023-11-21T00:29:48;99260.06;;;18.27;46.10
8637;BME280;4356;49.068;8.658;2023-11-21T00:32:13;99259.47;;;18.25;46.33
8637;BME280;4356;49.068;8.658;2023-11-21T00:34:39;99254.97;;;18.19;46.71
8637;BME280;4356;49.068;8.658;2023-11-21T00:37:05;99260.19;;;18.20;46.26
8637;BME280;4356;49.068;8.658;2023-11-21T00:39:30;99268.22;;;18.27;46.20
8637;BME280;4356;49.068;8.658;2023-11-21T00:41:55;99259.47;;;18.25;46.28
8637;BME280;4356;49.068;8.658;2023-11-21T00:44:21;99265.97;;;18.24;46.27
8637;BME280;4356;49.068;8.658;2023-11-21T00:46:46;99269.28;;;18.26;46.24
8637;BME280;4356;49.068;8.658;2023-11-21T00:49:12;99262.19;;;18.25;46.37
8637;BME280;4356;49.068;8.658;2023-11-21T00:51:38;99257.22;;;18.22;46.29
8637;BME280;4356;49.068;8.658;2023-11-21T00:54:03;99259.69;;;18.23;46.16
8637;BME280;4356;49.068;8.658;2023-11-21T00:56:29;99246.59;;;18.20;46.25
8637;BME280;4356;49.068;8.658;2023-11-21T00:58:54;99247.38;;;18.21;46.19
8637;BME280;4356;49.068;8.658;2023-11-21T01:01:21;99241.16;;;18.20;46.25
8637;BME280;4356;49.068;8.658;2023-11-21T01:03:49;99251.78;;;18.22;46.19
8637;BME280;4356;49.068;8.658;2023-11-21T01:06:15;99255.09;;;18.24;46.29
8637;BME280;4356;49.068;8.658;2023-11-21T01:08:41;99257.47;;;18.20;46.34
8637;BME280;4356;49.068;8.658;2023-11-21T01:11:06;99260.78;;;18.22;46.36
8637;BME280;4356;49.068;8.658;2023-11-21T01:13:37;99262.41;;;18.23;46.04
8637;BME280;4356;49.068;8.658;2023-11-21T01:16:03;99253.56;;;18.16;46.17
8637;BME280;4356;49.068;8.658;2023-11-21T01:18:29;99257.31;;;18.15;46.26
8637;BME280;4356;49.068;8.658;2023-11-21T01:20:54;99259.59;;;18.18;46.35
8637;BME280;4356;49.068;8.658;2023-11-21T01:23:19;99251.66;;;18.17;46.34
8637;BME280;4356;49.068;8.658;2023-11-21T01:25:45;99253.78;;;18.15;46.45
8637;BME280;4356;49.068;8.658;2023-11-21T01:28:10;99241.38;;;18.07;46.19
8637;BME280;4356;49.068;8.658;2023-11-21T01:30:36;99270.47;;;18.18;46.25
8637;BME280;4356;49.068;8.658;2023-11-21T01:33:01;99262.75;;;18.15;46.40
8637;BME280;4356;49.068;8.658;2023-11-21T01:35:26;99266.66;;;18.19;46.33
8637;BME280;4356;49.068;8.658;2023-11-21T01:37:52;99267.03;;;18.11;46.04
8637;BME280;4356;49.068;8.658;2023-11-21T01:40:17;99277.78;;;18.18;46.47
8637;BME280;4356;49.068;8.658;2023-11-21T01:42:44;99272.00;;;18.14;46.28
8637;BME280;4356;49.068;8.658;2023-11-21T01:45:11;99273.63;;;18.15;46.17
8637;BME280;4356;49.068;8.658;2023-11-21T01:47:38;99278.25;;;18.15;46.36
8637;BME280;4356;49.068;8.658;2023-11-21T01:50:06;99272.47;;;18.11;46.17
8637;BME280;4356;49.068;8.658;2023-11-21T01:52:33;99269.16;;;18.09;46.31
8637;BME280;4356;49.068;8.658;2023-11-21T01:55:00;99258.97;;;18.05;46.36
8637;BME280;4356;49.068;8.658;2023-11-21T01:57:26;99276.81;;;18.12;46.22
8637;BME280;4356;49.068;8.658;2023-11-21T01:59:54;99283.69;;;18.15;46.34
8637;BME280;4356;49.068;8.658;2023-11-21T02:02:19;99285.59;;;18.14;46.04
8637;BME280;4356;49.068;8.658;2023-11-21T02:04:45;99266.19;;;18.11;46.08
8637;BME280;4356;49.068;8.658;2023-11-21T02:07:10;99268.56;;;18.07;46.56
8637;BME280;4356;49.068;8.658;2023-11-21T02:09:35;99264.75;;;18.08;46.27
8637;BME280;4356;49.068;8.658;2023-11-21T02:12:04;99263.47;;;18.11;46.23
8637;BME280;4356;49.068;8.658;2023-11-21T02:14:30;99271.38;;;18.12;45.99
8637;BME280;4356;49.068;8.658;2023-11-21T02:16:56;99260.63;;;18.06;45.93
8637;BME280;4356;49.068;8.658;2023-11-21T02:19:26;99274.13;;;18.12;46.41
8637;BME280;4356;49.068;8.658;2023-11-21T02:21:52;99282.28;;;18.12;46.19
8637;BME280;4356;49.068;8.658;2023-11-21T02:24:21;99277.06;;;18.11;46.20
8637;BME280;4356;49.068;8.658;2023-11-21T02:26:48;99283.09;;;18.13;46.30
8637;BME280;4356;49.068;8.658;2023-11-21T02:29:14;99278.94;;;18.10;46.53
8637;BME280;4356;49.068;8.658;2023-11-21T02:31:43;99273.50;;;18.10;46.19
8637;BME280;4356;49.068;8.658;2023-11-21T02:34:16;99268.56;;;18.07;46.47
8637;BME280;4356;49.068;8.658;2023-11-21T02:36:43;99260.63;;;18.06;46.27
8637;BME280;4356;49.068;8.658;2023-11-21T02:39:09;99267.72;;;18.07;46.39
8637;BME280;4356;49.068;8.658;2023-11-21T02:41:35;99257.31;;;18.04;46.59
8637;BME280;4356;49.068;8.658;2023-11-21T02:44:01;99259.81;;;18.05;46.39
8637;BME280;4356;49.068;8.658;2023-11-21T02:46:26;99263.34;;;18.06;46.26
8637;BME280;4356;49.068;8.658;2023-11-21T02:48:52;99261.69;;;18.05;46.41
8637;BME280;4356;49.068;8.658;2023-11-21T02:51:19;99267.97;;;18.05;46.20
8637;BME280;4356;49.068;8.658;2023-11-21T02:53:45;99258.97;;;18.05;46.38
8637;BME280;4356;49.068;8.658;2023-11-21T02:56:12;99261.22;;;18.08;46.22
8637;BME280;4356;49.068;8.658;2023-11-21T02:58:37;99262.53;;;18.05;46.22
8637;BME280;4356;49.068;8.658;2023-11-21T03:01:03;99248.31;;;18.03;46.31
8637;BME280;4356;49.068;8.658;2023-11-21T03:03:32;99256.84;;;18.07;46.38
8637;BME280;4356;49.068;8.658;2023-11-21T03:05:57;99260.88;;;18.04;46.27
8637;BME280;4356;49.068;8.658;2023-11-21T03:08:23;99251.28;;;18.02;46.49
8637;BME280;4356;49.068;8.658;2023-11-21T03:10:48;99264.16;;;18.06;46.35
8637;BME280;4356;49.068;8.658;2023-11-21T03:13:13;99259.81;;;18.05;46.59
8637;BME280;4356;49.068;8.658;2023-11-21T03:15:39;99249.03;;;17.99;46.28
8637;BME280;4356;49.068;8.658;2023-11-21T03:18:04;99251.03;;;18.03;46.48
8637;BME280;4356;49.068;8.658;2023-11-21T03:20:30;99255.06;;;18.01;46.29
8637;BME280;4356;49.068;8.658;2023-11-21T03:22:55;99251.53;;;18.00;46.44
8637;BME280;4356;49.068;8.658;2023-11-21T03:25:20;99252.22;;;17.96;46.27
8637;BME280;4356;49.068;8.658;2023-11-21T03:27:49;99256.25;;;18.05;46.32
8637;BME280;4356;49.068;8.658;2023-11-21T03:30:14;99236.38;;;17.93;46.37
8637;BME280;4356;49.068;8.658;2023-11-21T03:32:40;99257.81;;;18.01;46.63
8637;BME280;4356;49.068;8.658;2023-11-21T03:35:05;99260.28;;;18.02;46.64
8637;BME280;4356;49.068;8.658;2023-11-21T03:37:31;99257.81;;;18.01;46.76
8637;BME280;4356;49.068;8.658;2023-11-21T03:39:56;99244.53;;;17.93;46.26
8637;BME280;4356;49.068;8.658;2023-11-21T03:42:22;99261.31;;;18.01;46.29
8637;BME280;4356;49.068;8.658;2023-11-21T03:44:47;99255.53;;;17.98;46.54
8637;BME280;4356;49.068;8.658;2023-11-21T03:47:12;99255.53;;;17.98;46.35
8637;BME280;4356;49.068;8.658;2023-11-21T03:49:38;99267.59;;;18.02;46.46
8637;BME280;4356;49.068;8.658;2023-11-21T03:52:04;99260.72;;;17.99;46.59
8637;BME280;4356;49.068;8.658;2023-11-21T03:54:30;99263.91;;;17.96;46.59
8637;BME280;4356;49.068;8.658;2023-11-21T03:56:55;99254.69;;;17.97;46.44
8637;BME280;4356;49.068;8.658;2023-11-21T03:59:21;99272.19;;;18.01;46.34
8637;BME280;4356;49.068;8.658;2023-11-21T04:01:49;99257.28;;;17.92;46.42
8637;BME280;4356;49.068;8.658;2023-11-21T04:04:15;99257.28;;;17.92;46.58
8637;BME280;4356;49.068;8.658;2023-11-21T04:06:41;99269.34;;;17.96;46.55
8637;BME280;4356;49.068;8.658;2023-11-21T04:09:06;99271.25;;;17.96;46.55
8637;BME280;4356;49.068;8.658;2023-11-21T04:11:31;99280.00;;;17.98;46.37
8637;BME280;4356;49.068;8.658;2023-11-21T04:13:57;99286.03;;;18.00;46.17
8637;BME280;4356;49.068;8.658;2023-11-21T04:16:22;99282.94;;;17.96;46.38
8637;BME280;4356;49.068;8.658;2023-11-21T04:18:47;99281.88;;;17.97;46.29
8637;BME280;4356;49.068;8.658;2023-11-21T04:21:13;99285.44;;;17.98;46.04
8637;BME280;4356;49.068;8.658;2023-11-21T04:23:38;99290.03;;;17.97;46.70
8637;BME280;4356;49.068;8.658;2023-11-21T04:26:05;99289.47;;;17.95;46.29
8637;BME280;4356;49.068;8.658;2023-11-21T04:28:30;99276.19;;;17.87;46.28
8637;BME280;4356;49.068;8.658;2023-11-21T04:30:56;99284.47;;;17.92;46.47
8637;BME280;4356;49.068;8.658;2023-11-21T04:33:21;99295.47;;;17.97;46.45
8637;BME280;4356;49.068;8.658;2023-11-21T04:35:47;99291.09;;;17.96;46.21
8637;BME280;4356;49.068;8.658;2023-11-21T04:38:13;99293.22;;;17.94;46.43
8637;BME280;4356;49.068;8.658;2023-11-21T04:40:39;99288.88;;;17.93;46.38
8637;BME280;4356;49.068;8.658;2023-11-21T04:43:04;99287.78;;;17.94;46.59
8637;BME280;4356;49.068;8.658;2023-11-21T04:45:30;99292.38;;;17.94;46.33
8637;BME280;4356;49.068;8.658;2023-11-21T04:47:55;99292.38;;;17.94;46.35
8637;BME280;4356;49.068;8.658;2023-11-21T04:50:21;99289.91;;;17.92;46.19
8637;BME280;4356;49.068;8.658;2023-11-21T04:52:46;99299.50;;;17.95;46.64
8637;BME280;4356;49.068;8.658;2023-11-21T04:55:12;99294.97;;;17.89;46.65
8637;BME280;4356;49.068;8.658;2023-11-21T04:57:38;99298.06;;;17.92;46.26
8637;BME280;4356;49.068;8.658;2023-11-21T05:00:04;99302.31;;;17.88;46.55
8637;BME280;4356;49.068;8.658;2023-11-21T05:02:31;99308.22;;;17.85;46.65
8637;BME280;4356;49.068;8.658;2023-11-21T05:04:59;99317.56;;;17.89;46.80
8637;BME280;4356;49.068;8.658;2023-11-21T05:07:24;99311.28;;;17.89;46.40
8637;BME280;4356;49.068;8.658;2023-11-21T05:09:54;99308.56;;;17.89;46.46
8637;BME280;4356;49.068;8.658;2023-11-21T05:12:21;99315.44;;;17.91;46.29
8637;BME280;4356;49.068;8.658;2023-11-21T05:14:46;99314.84;;;17.89;46.42
8637;BME280;4356;49.068;8.658;2023-11-21T05:17:12;99319.22;;;17.90;46.42
8637;BME280;4356;49.068;8.658;2023-11-21T05:19:38;99313.78;;;17.90;46.49
8637;BME280;4356;49.068;8.658;2023-11-21T05:22:05;99302.66;;;17.80;46.60
8637;BME280;4356;49.068;8.658;2023-11-21T05:24:31;99316.97;;;17.87;46.79
8637;BME280;4356;49.068;8.658;2023-11-21T05:26:56;99316.38;;;17.85;46.51
8637;BME280;4356;49.068;8.658;2023-11-21T05:29:22;99313.41;;;17.87;46.26
8637;BME280;4356;49.068;8.658;2023-11-21T05:31:47;99323.00;;;17.89;46.84
8637;BME280;4356;49.068;8.658;2023-11-21T05:34:13;99319.44;;;17.89;46.37
8637;BME280;4356;49.068;8.658;2023-11-21T05:36:38;99316.25;;;17.80;46.72
8637;BME280;4356;49.068;8.658;2023-11-21T05:39:03;99331.63;;;17.86;46.58
8637;BME280;4356;49.068;8.658;2023-11-21T05:41:29;99327.34;;;17.79;46.41
8637;BME280;4356;49.068;8.658;2023-11-21T05:43:55;99340.34;;;17.88;46.58
8637;BME280;4356;49.068;8.658;2023-11-21T05:46:20;99348.75;;;17.87;46.69
8637;BME280;4356;49.068;8.658;2023-11-21T05:48:45;99340.22;;;17.83;46.45
8637;BME280;4356;49.068;8.658;2023-11-21T05:51:11;99350.19;;;17.89;46.64
8637;BME280;4356;49.068;8.658;2023-11-21T05:53:37;99348.38;;;17.83;46.45
8637;BME280;4356;49.068;8.658;2023-11-21T05:56:03;99360.44;;;17.87;46.39
8637;BME280;4356;49.068;8.658;2023-11-21T05:58:29;99361.28;;;17.88;46.38
8637;BME280;4356;49.068;8.658;2023-11-21T06:00:54;99357.97;;;17.86;46.65
8637;BME280;4356;49.068;8.658;2023-11-21T06:03:19;99364.81;;;17.88;46.54
8637;BME280;4356;49.068;8.658;2023-11-21T06:05:45;99364.25;;;17.86;46.29
8637;BME280;4356;49.068;8.658;2023-11-21T06:08:10;99365.91;;;17.87;46.71
8637;BME280;4356;49.068;8.658;2023-11-21T06:10:35;99369.22;;;17.89;46.66
8637;BME280;4356;49.068;8.658;2023-11-21T06:13:01;99370.84;;;17.90;46.72
8637;BME280;4356;49.068;8.658;2023-11-21T06:15:26;99376.66;;;17.94;46.43
8637;BME280;4356;49.068;8.658;2023-11-21T06:17:51;99372.78;;;17.90;46.48
8637;BME280;4356;49.068;8.658;2023-11-21T06:20:18;99379.00;;;17.90;46.46
8637;BME280;4356;49.068;8.658;2023-11-21T06:22:46;99380.69;;;17.91;46.32
8637;BME280;4356;49.068;8.658;2023-11-21T06:25:12;99387.34;;;17.95;46.58
8637;BME280;4356;49.068;8.658;2023-11-21T06:30:05;99382.69;;;17.96;46.52
8637;BME280;4356;49.068;8.658;2023-11-21T06:32:32;99395.84;;;17.99;46.49
8637;BME280;4356;49.068;8.658;2023-11-21T06:34:57;99395.00;;;17.98;46.35
8637;BME280;4356;49.068;8.658;2023-11-21T06:37:26;99401.06;;;18.00;46.66
8637;BME280;4356;49.068;8.658;2023-11-21T06:39:52;99392.75;;;17.95;46.76
8637;BME280;4356;49.068;8.658;2023-11-21T06:42:18;99396.22;;;18.02;46.51
8637;BME280;4356;49.068;8.658;2023-11-21T06:44:47;99397.72;;;17.98;46.41
8637;BME280;4356;49.068;8.658;2023-11-21T06:47:13;99389.34;;;18.00;46.35
8637;BME280;4356;49.068;8.658;2023-11-21T06:49:39;99412.66;;;18.07;46.49
8637;BME280;4356;49.068;8.658;2023-11-21T06:52:05;99409.94;;;18.07;46.49
8637;BME280;4356;49.068;8.658;2023-11-21T06:54:34;99414.66;;;18.12;46.43
8637;BME280;4356;49.068;8.658;2023-11-21T06:57:00;99413.03;;;18.11;46.62
8637;BME280;4356;49.068;8.658;2023-11-21T06:59:25;99417.19;;;18.13;46.61
8637;BME280;4356;49.068;8.658;2023-11-21T07:01:50;99418.59;;;18.16;46.53
8637;BME280;4356;49.068;8.658;2023-11-21T07:04:16;99406.16;;;18.08;46.67
8637;BME280;4356;49.068;8.658;2023-11-21T07:06:43;99429.84;;;18.19;46.25
8637;BME280;4356;49.068;8.658;2023-11-21T07:09:09;99426.88;;;18.21;46.36
8637;BME280;4356;49.068;8.658;2023-11-21T07:11:37;99424.63;;;18.18;46.36
8637;BME280;4356;49.068;8.658;2023-11-21T07:14:03;99423.81;;;18.17;46.23
8637;BME280;4356;49.068;8.658;2023-11-21T07:16:36;99418.00;;;18.14;46.40
8637;BME280;4356;49.068;8.658;2023-11-21T07:19:03;99429.16;;;18.24;46.39
8637;BME280;4356;49.068;8.658;2023-11-21T07:21:31;99440.66;;;18.26;46.44
8637;BME280;4356;49.068;8.658;2023-11-21T07:23:57;99438.13;;;18.24;46.27
8637;BME280;4356;49.068;8.658;2023-11-21T07:26:22;99442.28;;;18.27;46.23
8637;BME280;4356;49.068;8.658;2023-11-21T07:28:48;99460.41;;;18.33;46.20
8637;BME280;4356;49.068;8.658;2023-11-21T07:31:13;99452.50;;;18.31;46.20
8637;BME280;4356;49.068;8.658;2023-11-21T07:33:39;99451.66;;;18.31;46.12
8637;BME280;4356;49.068;8.658;2023-11-21T07:36:04;99453.78;;;18.29;46.17
8637;BME280;4356;49.068;8.658;2023-11-21T07:38:30;99467.25;;;18.35;46.10
8637;BME280;4356;49.068;8.658;2023-11-21T07:40:55;99459.56;;;18.32;46.26
8637;BME280;4356;49.068;8.658;2023-11-21T07:43:20;99468.34;;;18.34;46.21
8637;BME280;4356;49.068;8.658;2023-11-21T07:45:47;99471.44;;;18.38;46.25
8637;BME280;4356;49.068;8.658;2023-11-21T07:48:12;99474.97;;;18.38;46.05
8637;BME280;4356;49.068;8.658;2023-11-21T07:50:41;99471.66;;;18.36;46.24
8637;BME280;4356;49.068;8.658;2023-11-21T07:53:06;99472.03;;;18.40;46.03
8637;BME280;4356;49.068;8.658;2023-11-21T07:55:32;99470.34;;;18.39;46.03
8637;BME280;4356;49.068;8.658;2023-11-21T07:57:58;99476.19;;;18.42;45.96
8637;BME280;4356;49.068;8.658;2023-11-21T08:00:24;99483.06;;;18.45;46.07
8637;BME280;4356;49.068;8.658;2023-11-21T08:02:49;99471.81;;;18.41;46.29
8637;BME280;4356;49.068;8.658;2023-11-21T08:05:15;99482.84;;;18.46;46.02
8637;BME280;4356;49.068;8.658;2023-11-21T08:07:41;99486.63;;;18.45;46.18
8637;BME280;4356;49.068;8.658;2023-11-21T08:10:07;99482.84;;;18.46;45.98
8637;BME280;4356;49.068;8.658;2023-11-21T08:12:32;99488.88;;;18.48;46.10
8637;BME280;4356;49.068;8.658;2023-11-21T08:14:57;99488.03;;;18.48;45.98
8637;BME280;4356;49.068;8.658;2023-11-21T08:17:23;99487.84;;;18.50;46.10
8637;BME280;4356;49.068;8.658;2023-11-21T08:19:48;99492.44;;;18.49;46.24
8637;BME280;4356;49.068;8.658;2023-11-21T08:22:17;99487.47;;;18.46;46.04
8637;BME280;4356;49.068;8.658;2023-11-21T08:24:44;99490.75;;;18.48;45.99
8637;BME280;4356;49.068;8.658;2023-11-21T08:27:09;99498.47;;;18.51;46.15
8637;BME280;4356;49.068;8.658;2023-11-21T08:29:35;99516.81;;;18.56;45.99
8637;BME280;4356;49.068;8.658;2023-11-21T08:32:02;99515.78;;;18.57;46.00
8637;BME280;4356;49.068;8.658;2023-11-21T08:34:27;99516.59;;;18.57;45.93
8637;BME280;4356;49.068;8.658;2023-11-21T08:36:54;99509.13;;;18.53;45.83
8637;BME280;4356;49.068;8.658;2023-11-21T08:39:19;99512.69;;;18.53;46.00
8637;BME280;4356;49.068;8.658;2023-11-21T08:41:44;99514.09;;;18.56;45.85
8637;BME280;4356;49.068;8.658;2023-11-21T08:44:10;99514.69;;;18.58;45.64
8637;BME280;4356;49.068;8.658;2023-11-21T08:46:36;99495.75;;;18.51;45.83
8637;BME280;4356;49.068;8.658;2023-11-21T08:49:03;99521.34;;;18.62;45.80
8637;BME280;4356;49.068;8.658;2023-11-21T08:51:29;99516.50;;;18.64;45.66
8637;BME280;4356;49.068;8.658;2023-11-21T08:53:54;99510.56;;;18.55;45.73
8637;BME280;4356;49.068;8.658;2023-11-21T08:56:20;99520.06;;;18.64;45.67
8637;BME280;4356;49.068;8.658;2023-11-21T08:58:46;99528.00;;;18.66;45.67
8637;BME280;4356;49.068;8.658;2023-11-21T09:01:12;99526.19;;;18.60;45.87
8637;BME280;4356;49.068;8.658;2023-11-21T09:03:38;99534.03;;;18.68;45.90
8637;BME280;4356;49.068;8.658;2023-11-21T09:06:04;99519.09;;;18.59;46.05
8637;BME280;4356;49.068;8.658;2023-11-21T09:08:30;99526.91;;;18.67;45.76
8637;BME280;4356;49.068;8.658;2023-11-21T09:10:55;99541.72;;;18.71;45.53
8637;BME280;4356;49.068;8.658;2023-11-21T09:13:21;99527.53;;;18.69;45.74
8637;BME280;4356;49.068;8.658;2023-11-21T09:15:46;99536.88;;;18.73;45.98
8637;BME280;4356;49.068;8.658;2023-11-21T09:18:15;99547.31;;;18.76;46.04
8637;BME280;4356;49.068;8.658;2023-11-21T09:20:42;99511.84;;;18.53;45.91
8637;BME280;4356;49.068;8.658;2023-11-21T09:23:09;99526.78;;;18.62;45.70
8637;BME280;4356;49.068;8.658;2023-11-21T09:25:34;99549.78;;;18.77;45.76
8637;BME280;4356;49.068;8.658;2023-11-21T09:27:59;99550.00;;;18.64;45.90
8637;BME280;4356;49.068;8.658;2023-11-21T09:30:25;99570.53;;;18.78;45.76
8637;BME280;4356;49.068;8.658;2023-11-21T09:32:51;99567.78;;;18.78;45.60
8637;BME280;4356;49.068;8.658;2023-11-21T09:35:17;99554.72;;;18.69;45.71
8637;BME280;4356;49.068;8.658;2023-11-21T09:37:44;99543.72;;;18.64;45.73
8637;BME280;4356;49.068;8.658;2023-11-21T09:40:11;99580.47;;;18.84;45.50
8637;BME280;4356;49.068;8.658;2023-11-21T09:42:40;99567.66;;;18.73;45.61
8637;BME280;4356;49.068;8.658;2023-11-21T09:45:18;99579.66;;;18.84;45.62
8637;BME280;4356;49.068;8.658;2023-11-21T09:47:46;99582.13;;;18.85;45.75
8637;BME280;4356;49.068;8.658;2023-11-21T09:50:16;99576.19;;;18.77;45.72
8637;BME280;4356;49.068;8.658;2023-11-21T09:55:18;99580.69;;;18.83;45.50
8637;BME280;4356;49.068;8.658;2023-11-21T09:57:46;99579.72;;;18.77;45.56
8637;BME280;4356;49.068;8.658;2023-11-21T10:00:14;99592.31;;;18.90;45.92
8637;BME280;4356;49.068;8.658;2023-11-21T10:02:43;99600.28;;;18.91;45.47
8637;BME280;4356;49.068;8.658;2023-11-21T10:05:09;99591.50;;;18.89;45.65
8637;BME280;4356;49.068;8.658;2023-11-21T10:07:39;99589.84;;;18.88;45.82
8637;BME280;4356;49.068;8.658;2023-11-21T10:10:07;99576.69;;;18.85;45.39
8637;BME280;4356;49.068;8.658;2023-11-21T10:12:35;99592.13;;;18.91;45.83
8637;BME280;4356;49.068;8.658;2023-11-21T10:15:03;99590.19;;;18.92;45.44
8637;BME280;4356;49.068;8.658;2023-11-21T10:17:32;99562.59;;;18.77;45.59
8637;BME280;4356;49.068;8.658;2023-11-21T10:20:10;99596.84;;;18.96;45.80
8637;BME280;4356;49.068;8.658;2023-11-21T10:22:40;99588.78;;;18.89;45.56
8637;BME280;4356;49.068;8.658;2023-11-21T10:25:07;99572.78;;;18.81;45.63
8637;BME280;4356;49.068;8.658;2023-11-21T10:27:34;99601.25;;;18.97;45.68
8637;BME280;4356;49.068;8.658;2023-11-21T10:30:03;99596.59;;;18.97;45.48
8637;BME280;4356;49.068;8.658;2023-11-21T10:32:31;99597.81;;;19.01;45.67
8637;BME280;4356;49.068;8.658;2023-11-21T10:34:58;99589.28;;;18.98;45.43
8637;BME280;4356;49.068;8.658;2023-11-21T10:37:32;99594.72;;;18.98;45.31
8637;BME280;4356;49.068;8.658;2023-11-21T10:39:59;99597.22;;;18.99;45.55
8637;BME280;4356;49.068;8.658;2023-11-21T10:42:24;99600.53;;;19.01;45.62
8637;BME280;4356;49.068;8.658;2023-11-21T10:44:50;99590.94;;;18.99;45.79
8637;BME280;4356;49.068;8.658;2023-11-21T10:47:16;99605.75;;;19.03;45.72
8637;BME280;4356;49.068;8.658;2023-11-21T10:49:44;99601.97;;;19.04;45.79
8637;BME280;4356;49.068;8.658;2023-11-21T10:52:10;99606.59;;;19.03;45.71
8637;BME280;4356;49.068;8.658;2023-11-21T10:54:43;99615.34;;;19.05;45.60
8637;BME280;4356;49.068;8.658;2023-11-21T10:57:10;99610.75;;;19.06;45.51
8637;BME280;4356;49.068;8.658;2023-11-21T10:59:36;99615.34;;;19.05;45.46
8637;BME280;4356;49.068;8.658;2023-11-21T11:02:14;99613.91;;;19.03;45.64
8637;BME280;4356;49.068;8.658;2023-11-21T11:04:47;99619.72;;;19.06;45.52
8637;BME280;4356;49.068;8.658;2023-11-21T11:07:14;99623.28;;;19.07;45.71
8637;BME280;4356;49.068;8.658;2023-11-21T11:09:41;99621.41;;;19.07;45.65
8637;BME280;4356;49.068;8.658;2023-11-21T11:12:09;99624.13;;;19.07;45.53
8637;BME280;4356;49.068;8.658;2023-11-21T11:14:35;99619.97;;;19.05;45.39
8637;BME280;4356;49.068;8.658;2023-11-21T11:17:01;99610.81;;;18.99;45.77
8637;BME280;4356;49.068;8.658;2023-11-21T11:19:27;99609.31;;;19.03;45.65
8637;BME280;4356;49.068;8.658;2023-11-21T11:22:04;99612.41;;;19.07;45.61
8637;BME280;4356;49.068;8.658;2023-11-21T11:24:57;99627.34;;;19.16;45.54
8637;BME280;4356;49.068;8.658;2023-11-21T11:27:37;99609.06;;;19.05;45.55
8637;BME280;4356;49.068;8.658;2023-11-21T11:30:17;99620.81;;;19.17;45.74
8637;BME280;4356;49.068;8.658;2023-11-21T11:36:09;99623.34;;;19.18;45.79
8637;BME280;4356;49.068;8.658;2023-11-21T11:38:36;99615.84;;;19.14;45.59
8637;BME280;4356;49.068;8.658;2023-11-21T11:41:03;99620.81;;;19.17;45.77
8637;BME280;4356;49.068;8.658;2023-11-21T11:43:32;99626.06;;;19.18;45.72
8637;BME280;4356;49.068;8.658;2023-11-21T11:45:59;99637.31;;;19.22;45.83
8637;BME280;4356;49.068;8.658;2023-11-21T11:48:25;99643.38;;;19.24;45.44
8637;BME280;4356;49.068;8.658;2023-11-21T11:51:14;99634.97;;;19.25;45.64
8637;BME280;4356;49.068;8.658;2023-11-21T11:53:46;99628.53;;;19.20;45.62
8637;BME280;4356;49.068;8.658;2023-11-21T11:56:25;99645.00;;;19.25;45.47
8637;BME280;4356;49.068;8.658;2023-11-21T11:58:52;99644.19;;;19.24;45.52
8637;BME280;4356;49.068;8.658;2023-11-21T12:01:22;99652.09;;;19.26;45.67
8637;BME280;4356;49.068;8.658;2023-11-21T12:06:47;99642.28;;;19.25;45.63
8637;BME280;4356;49.068;8.658;2023-11-21T12:09:19;99647.50;;;19.26;45.37
8637;BME280;4356;49.068;8.658;2023-11-21T12:11:47;99651.66;;;19.29;45.57
8637;BME280;4356;49.068;8.658;2023-11-21T12:14:13;99654.16;;;19.30;45.54
8637;BME280;4356;49.068;8.658;2023-11-21T12:16:39;99647.88;;;19.30;45.36
8637;BME280;4356;49.068;8.658;2023-11-21T12:19:05;99639.19;;;19.21;45.38
8637;BME280;4356;49.068;8.658;2023-11-21T12:21:30;99660.47;;;19.31;45.66
8637;BME280;4356;49.068;8.658;2023-11-21T12:23:57;99659.41;;;19.32;45.33
8637;BME280;4356;49.068;8.658;2023-11-21T12:26:27;99662.97;;;19.32;45.51
8637;BME280;4356;49.068;8.658;2023-11-21T12:28:55;99660.00;;;19.34;45.64
8637;BME280;4356;49.068;8.658;2023-11-21T12:31:24;99653.31;;;19.30;45.36
8637;BME280;4356;49.068;8.658;2023-11-21T12:33:50;99651.91;;;19.27;45.53
8637;BME280;4356;49.068;8.658;2023-11-21T12:36:16;99649.19;;;19.27;45.64
8637;BME280;4356;49.068;8.658;2023-11-21T12:38:42;99671.25;;;19.37;45.50
8637;BME280;4356;49.068;8.658;2023-11-21T12:41:09;99677.56;;;19.38;45.37
8637;BME280;4356;49.068;8.658;2023-11-21T12:43:35;99674.22;;;19.36;45.43
8637;BME280;4356;49.068;8.658;2023-11-21T12:46:08;99680.50;;;19.36;45.39
8637;BME280;4356;49.068;8.658;2023-11-21T12:48:38;99683.00;;;19.38;45.62
8637;BME280;4356;49.068;8.658;2023-11-21T12:51:11;99680.72;;;19.35;45.71
8637;BME280;4356;49.068;8.658;2023-11-21T12:53:40;99680.97;;;19.33;45.42
8637;BME280;4356;49.068;8.658;2023-11-21T12:56:07;99682.03;;;19.32;45.42
8637;BME280;4356;49.068;8.658;2023-11-21T12:58:34;99681.56;;;19.35;45.57
8637;BME280;4356;49.068;8.658;2023-11-21T13:01:00;99680.97;;;19.33;45.62
8637;BME280;4356;49.068;8.658;2023-11-21T13:03:29;99684.66;;;19.39;45.75
8637;BME280;4356;49.068;8.658;2023-11-21T13:05:55;99687.38;;;19.39;45.60
8637;BME280;4356;49.068;8.658;2023-11-21T13:08:24;99688.44;;;19.38;45.62
8637;BME280;4356;49.068;8.658;2023-11-21T13:10:52;99693.91;;;19.38;45.61
8637;BME280;4356;49.068;8.658;2023-11-21T13:13:19;99695.31;;;19.40;45.83
8637;BME280;4356;49.068;8.658;2023-11-21T13:15:50;99694.13;;;19.36;45.74
8637;BME280;4356;49.068;8.658;2023-11-21T13:18:16;99701.22;;;19.37;45.78
8637;BME280;4356;49.068;8.658;2023-11-21T13:20:42;99704.56;;;19.39;45.59
8637;BME280;4356;49.068;8.658;2023-11-21T13:23:09;99696.16;;;19.41;45.58
8637;BME280;4356;49.068;8.658;2023-11-21T13:25:39;99700.75;;;19.40;45.87
8637;BME280;4356;49.068;8.658;2023-11-21T13:28:07;99708.72;;;19.42;45.57
8637;BME280;4356;49.068;8.658;2023-11-21T13:30:32;99694.94;;;19.37;45.55